sensor_id;sensor_type;location;lat;lon;timestamp;P1;durP1;ratioP1;P2;durP2;ratioP2
72601;SDS011;60644;55.858;37.390;2023-07-29T00:01:30;6.50;;;2.10;;
72601;SDS011;60644;55.858;37.390;2023-07-29T00:03:56;6.47;;;2.00;;
72601;SDS011;60644;55.858;37.390;2023-07-29T00:06:23;4.17;;;1.63;;
72601;SDS011;60644;55.858;37.390;2023-07-29T00:08:49;4.78;;;1.77;;
72601;SDS011;60644;55.858;37.390;2023-07-29T00:11:14;5.93;;;1.80;;
72601;SDS011;60644;55.858;37.390;2023-07-29T00:13:40;6.10;;;1.50;;
72601;SDS011;60644;55.858;37.390;2023-07-29T00:16:06;6.10;;;1.77;;
72601;SDS011;60644;55.858;37.390;2023-07-29T00:18:32;4.05;;;1.50;;
72601;SDS011;60644;55.858;37.390;2023-07-29T00:20:58;5.25;;;1.60;;
72601;SDS011;60644;55.858;37.390;2023-07-29T00:23:23;4.60;;;1.30;;
72601;SDS011;60644;55.858;37.390;2023-07-29T00:25:49;6.60;;;1.83;;
72601;SDS011;60644;55.858;37.390;2023-07-29T00:28:15;6.20;;;1.80;;
72601;SDS011;60644;55.858;37.390;2023-07-29T00:30:41;6.28;;;1.73;;
72601;SDS011;60644;55.858;37.390;2023-07-29T00:33:06;6.43;;;1.90;;
72601;SDS011;60644;55.858;37.390;2023-07-29T00:35:32;5.45;;;1.60;;
72601;SDS011;60644;55.858;37.390;2023-07-29T00:37:59;4.53;;;1.58;;
72601;SDS011;60644;55.858;37.390;2023-07-29T00:40:27;5.90;;;2.00;;
72601;SDS011;60644;55.858;37.390;2023-07-29T00:42:53;6.10;;;1.70;;
72601;SDS011;60644;55.858;37.390;2023-07-29T00:45:19;4.13;;;1.42;;
72601;SDS011;60644;55.858;37.390;2023-07-29T00:47:44;4.60;;;1.50;;
72601;SDS011;60644;55.858;37.390;2023-07-29T00:50:11;5.35;;;1.60;;
72601;SDS011;60644;55.858;37.390;2023-07-29T00:52:37;6.10;;;1.77;;
72601;SDS011;60644;55.858;37.390;2023-07-29T00:55:03;4.10;;;1.40;;
72601;SDS011;60644;55.858;37.390;2023-07-29T00:57:29;4.35;;;1.50;;
72601;SDS011;60644;55.858;37.390;2023-07-29T00:59:55;5.87;;;1.63;;
72601;SDS011;60644;55.858;37.390;2023-07-29T01:02:21;4.80;;;1.75;;
72601;SDS011;60644;55.858;37.390;2023-07-29T01:04:51;4.60;;;1.38;;
72601;SDS011;60644;55.858;37.390;2023-07-29T01:07:20;4.30;;;1.40;;
72601;SDS011;60644;55.858;37.390;2023-07-29T01:14:51;4.60;;;1.47;;
72601;SDS011;60644;55.858;37.390;2023-07-29T01:17:25;5.05;;;1.50;;
72601;SDS011;60644;55.858;37.390;2023-07-29T01:22:35;4.72;;;1.42;;
72601;SDS011;60644;55.858;37.390;2023-07-29T01:25:01;3.97;;;1.05;;
72601;SDS011;60644;55.858;37.390;2023-07-29T01:27:29;3.03;;;0.90;;
72601;SDS011;60644;55.858;37.390;2023-07-29T01:29:56;4.55;;;1.67;;
72601;SDS011;60644;55.858;37.390;2023-07-29T01:32:28;4.38;;;1.60;;
72601;SDS011;60644;55.858;37.390;2023-07-29T01:37:30;5.25;;;1.80;;
72601;SDS011;60644;55.858;37.390;2023-07-29T01:39:58;4.10;;;1.40;;
72601;SDS011;60644;55.858;37.390;2023-07-29T01:42:24;6.28;;;1.40;;
72601;SDS011;60644;55.858;37.390;2023-07-29T01:44:50;5.95;;;1.85;;
72601;SDS011;60644;55.858;37.390;2023-07-29T01:47:16;4.60;;;1.67;;
72601;SDS011;60644;55.858;37.390;2023-07-29T01:49:42;4.40;;;1.65;;
72601;SDS011;60644;55.858;37.390;2023-07-29T01:52:08;6.03;;;1.80;;
72601;SDS011;60644;55.858;37.390;2023-07-29T01:54:33;4.90;;;1.73;;
72601;SDS011;60644;55.858;37.390;2023-07-29T01:57:00;6.07;;;2.00;;
72601;SDS011;60644;55.858;37.390;2023-07-29T01:59:25;6.93;;;2.00;;
72601;SDS011;60644;55.858;37.390;2023-07-29T02:01:51;5.73;;;2.20;;
72601;SDS011;60644;55.858;37.390;2023-07-29T02:04:17;5.28;;;1.98;;
72601;SDS011;60644;55.858;37.390;2023-07-29T02:06:43;6.47;;;2.37;;
72601;SDS011;60644;55.858;37.390;2023-07-29T02:09:09;6.90;;;2.38;;
72601;SDS011;60644;55.858;37.390;2023-07-29T02:11:34;5.80;;;2.20;;
72601;SDS011;60644;55.858;37.390;2023-07-29T02:14:01;5.30;;;2.00;;
72601;SDS011;60644;55.858;37.390;2023-07-29T02:16:27;5.03;;;1.90;;
72601;SDS011;60644;55.858;37.390;2023-07-29T02:18:53;5.32;;;2.10;;
72601;SDS011;60644;55.858;37.390;2023-07-29T02:21:19;6.70;;;2.17;;
72601;SDS011;60644;55.858;37.390;2023-07-29T02:23:45;7.72;;;2.03;;
72601;SDS011;60644;55.858;37.390;2023-07-29T02:26:11;5.60;;;1.80;;
72601;SDS011;60644;55.858;37.390;2023-07-29T02:28:37;4.15;;;1.77;;
72601;SDS011;60644;55.858;37.390;2023-07-29T02:31:11;6.10;;;1.83;;
72601;SDS011;60644;55.858;37.390;2023-07-29T02:33:38;6.20;;;2.00;;
72601;SDS011;60644;55.858;37.390;2023-07-29T02:36:03;6.60;;;2.30;;
72601;SDS011;60644;55.858;37.390;2023-07-29T02:38:29;5.03;;;1.92;;
72601;SDS011;60644;55.858;37.390;2023-07-29T02:40:55;5.70;;;1.90;;
72601;SDS011;60644;55.858;37.390;2023-07-29T02:43:20;6.40;;;2.47;;
72601;SDS011;60644;55.858;37.390;2023-07-29T02:45:46;4.68;;;1.77;;
72601;SDS011;60644;55.858;37.390;2023-07-29T02:48:12;6.07;;;2.00;;
72601;SDS011;60644;55.858;37.390;2023-07-29T02:50:38;5.00;;;1.97;;
72601;SDS011;60644;55.858;37.390;2023-07-29T02:53:03;5.00;;;1.90;;
72601;SDS011;60644;55.858;37.390;2023-07-29T02:55:29;6.97;;;1.90;;
72601;SDS011;60644;55.858;37.390;2023-07-29T02:57:55;5.35;;;2.38;;
72601;SDS011;60644;55.858;37.390;2023-07-29T03:00:20;5.57;;;2.23;;
72601;SDS011;60644;55.858;37.390;2023-07-29T03:02:46;5.88;;;2.13;;
72601;SDS011;60644;55.858;37.390;2023-07-29T03:05:12;6.90;;;2.20;;
72601;SDS011;60644;55.858;37.390;2023-07-29T03:07:38;5.70;;;2.17;;
72601;SDS011;60644;55.858;37.390;2023-07-29T03:10:04;6.70;;;2.20;;
72601;SDS011;60644;55.858;37.390;2023-07-29T03:12:30;6.40;;;2.40;;
72601;SDS011;60644;55.858;37.390;2023-07-29T03:14:56;6.13;;;2.13;;
72601;SDS011;60644;55.858;37.390;2023-07-29T03:17:22;8.70;;;2.30;;
72601;SDS011;60644;55.858;37.390;2023-07-29T03:19:48;6.78;;;2.10;;
72601;SDS011;60644;55.858;37.390;2023-07-29T03:22:14;5.82;;;2.50;;
72601;SDS011;60644;55.858;37.390;2023-07-29T03:24:39;4.87;;;1.90;;
72601;SDS011;60644;55.858;37.390;2023-07-29T03:27:05;5.85;;;2.10;;
72601;SDS011;60644;55.858;37.390;2023-07-29T03:29:31;6.27;;;2.30;;
72601;SDS011;60644;55.858;37.390;2023-07-29T03:31:56;6.45;;;2.00;;
72601;SDS011;60644;55.858;37.390;2023-07-29T03:34:22;4.80;;;1.60;;
72601;SDS011;60644;55.858;37.390;2023-07-29T03:36:48;4.70;;;2.05;;
72601;SDS011;60644;55.858;37.390;2023-07-29T03:39:16;5.63;;;2.25;;
72601;SDS011;60644;55.858;37.390;2023-07-29T03:41:42;6.32;;;2.38;;
72601;SDS011;60644;55.858;37.390;2023-07-29T03:44:08;4.97;;;1.80;;
72601;SDS011;60644;55.858;37.390;2023-07-29T03:46:34;5.78;;;2.30;;
72601;SDS011;60644;55.858;37.390;2023-07-29T03:49:01;6.05;;;2.53;;
72601;SDS011;60644;55.858;37.390;2023-07-29T03:51:27;6.80;;;2.47;;
72601;SDS011;60644;55.858;37.390;2023-07-29T03:53:53;6.97;;;2.60;;
72601;SDS011;60644;55.858;37.390;2023-07-29T03:56:20;7.15;;;2.67;;
72601;SDS011;60644;55.858;37.390;2023-07-29T03:58:45;7.30;;;2.33;;
72601;SDS011;60644;55.858;37.390;2023-07-29T04:01:12;6.60;;;2.60;;
72601;SDS011;60644;55.858;37.390;2023-07-29T04:03:38;6.10;;;2.30;;
72601;SDS011;60644;55.858;37.390;2023-07-29T04:06:03;6.68;;;2.50;;
72601;SDS011;60644;55.858;37.390;2023-07-29T04:08:29;5.63;;;1.83;;
72601;SDS011;60644;55.858;37.390;2023-07-29T04:10:55;5.30;;;2.30;;
72601;SDS011;60644;55.858;37.390;2023-07-29T04:13:21;6.27;;;2.80;;
72601;SDS011;60644;55.858;37.390;2023-07-29T04:15:46;6.95;;;2.50;;
72601;SDS011;60644;55.858;37.390;2023-07-29T04:18:12;5.40;;;2.30;;
72601;SDS011;60644;55.858;37.390;2023-07-29T04:20:38;5.80;;;2.20;;
72601;SDS011;60644;55.858;37.390;2023-07-29T04:23:04;8.35;;;2.70;;
72601;SDS011;60644;55.858;37.390;2023-07-29T04:25:29;5.67;;;1.93;;
72601;SDS011;60644;55.858;37.390;2023-07-29T04:27:55;7.40;;;2.47;;
72601;SDS011;60644;55.858;37.390;2023-07-29T04:30:23;6.17;;;1.93;;
72601;SDS011;60644;55.858;37.390;2023-07-29T04:32:48;7.05;;;2.08;;
72601;SDS011;60644;55.858;37.390;2023-07-29T04:35:14;5.80;;;2.13;;
72601;SDS011;60644;55.858;37.390;2023-07-29T04:37:40;5.95;;;1.88;;
72601;SDS011;60644;55.858;37.390;2023-07-29T04:40:06;6.78;;;2.10;;
72601;SDS011;60644;55.858;37.390;2023-07-29T04:42:32;7.33;;;2.83;;
72601;SDS011;60644;55.858;37.390;2023-07-29T04:44:58;5.00;;;1.80;;
72601;SDS011;60644;55.858;37.390;2023-07-29T04:47:23;6.33;;;1.47;;
72601;SDS011;60644;55.858;37.390;2023-07-29T04:49:49;5.68;;;1.77;;
72601;SDS011;60644;55.858;37.390;2023-07-29T04:52:15;4.80;;;1.90;;
72601;SDS011;60644;55.858;37.390;2023-07-29T04:54:41;4.82;;;2.13;;
72601;SDS011;60644;55.858;37.390;2023-07-29T04:57:06;8.73;;;2.60;;
72601;SDS011;60644;55.858;37.390;2023-07-29T04:59:32;6.45;;;2.38;;
72601;SDS011;60644;55.858;37.390;2023-07-29T05:01:58;6.65;;;2.20;;
72601;SDS011;60644;55.858;37.390;2023-07-29T05:04:24;5.50;;;2.00;;
72601;SDS011;60644;55.858;37.390;2023-07-29T05:06:50;6.28;;;2.40;;
72601;SDS011;60644;55.858;37.390;2023-07-29T05:09:16;6.32;;;2.10;;
72601;SDS011;60644;55.858;37.390;2023-07-29T05:11:43;6.05;;;2.25;;
72601;SDS011;60644;55.858;37.390;2023-07-29T05:14:14;5.53;;;2.20;;
72601;SDS011;60644;55.858;37.390;2023-07-29T05:16:41;4.63;;;1.88;;
72601;SDS011;60644;55.858;37.390;2023-07-29T05:19:07;5.65;;;2.33;;
72601;SDS011;60644;55.858;37.390;2023-07-29T05:21:33;6.30;;;2.30;;
72601;SDS011;60644;55.858;37.390;2023-07-29T05:23:59;8.13;;;2.03;;
72601;SDS011;60644;55.858;37.390;2023-07-29T05:26:24;6.05;;;2.45;;
72601;SDS011;60644;55.858;37.390;2023-07-29T05:28:50;4.80;;;1.80;;
72601;SDS011;60644;55.858;37.390;2023-07-29T05:31:16;5.85;;;2.30;;
72601;SDS011;60644;55.858;37.390;2023-07-29T05:33:42;7.20;;;2.40;;
72601;SDS011;60644;55.858;37.390;2023-07-29T05:36:08;4.90;;;1.45;;
72601;SDS011;60644;55.858;37.390;2023-07-29T05:38:33;5.88;;;2.00;;
72601;SDS011;60644;55.858;37.390;2023-07-29T05:40:59;5.63;;;2.17;;
72601;SDS011;60644;55.858;37.390;2023-07-29T05:43:26;5.18;;;1.95;;
72601;SDS011;60644;55.858;37.390;2023-07-29T05:45:52;5.33;;;2.30;;
72601;SDS011;60644;55.858;37.390;2023-07-29T05:48:19;5.00;;;2.00;;
72601;SDS011;60644;55.858;37.390;2023-07-29T05:50:44;7.30;;;2.42;;
72601;SDS011;60644;55.858;37.390;2023-07-29T05:53:10;5.88;;;2.40;;
72601;SDS011;60644;55.858;37.390;2023-07-29T05:55:36;5.83;;;2.20;;
72601;SDS011;60644;55.858;37.390;2023-07-29T05:58:02;7.80;;;2.38;;
72601;SDS011;60644;55.858;37.390;2023-07-29T06:00:28;5.43;;;1.93;;
72601;SDS011;60644;55.858;37.390;2023-07-29T06:02:53;5.68;;;1.67;;
72601;SDS011;60644;55.858;37.390;2023-07-29T06:05:21;6.32;;;2.28;;
72601;SDS011;60644;55.858;37.390;2023-07-29T06:07:47;5.00;;;1.70;;
72601;SDS011;60644;55.858;37.390;2023-07-29T06:10:14;5.88;;;1.92;;
72601;SDS011;60644;55.858;37.390;2023-07-29T06:12:44;5.38;;;2.08;;
72601;SDS011;60644;55.858;37.390;2023-07-29T06:15:10;5.07;;;1.92;;
72601;SDS011;60644;55.858;37.390;2023-07-29T06:17:35;6.30;;;1.70;;
72601;SDS011;60644;55.858;37.390;2023-07-29T06:20:01;5.50;;;1.60;;
72601;SDS011;60644;55.858;37.390;2023-07-29T06:22:28;4.90;;;1.70;;
72601;SDS011;60644;55.858;37.390;2023-07-29T06:24:54;5.80;;;2.00;;
72601;SDS011;60644;55.858;37.390;2023-07-29T06:27:19;6.03;;;2.00;;
72601;SDS011;60644;55.858;37.390;2023-07-29T06:29:45;6.60;;;2.38;;
72601;SDS011;60644;55.858;37.390;2023-07-29T06:32:11;7.43;;;2.40;;
72601;SDS011;60644;55.858;37.390;2023-07-29T06:34:36;7.57;;;2.08;;
72601;SDS011;60644;55.858;37.390;2023-07-29T06:37:02;7.30;;;2.00;;
72601;SDS011;60644;55.858;37.390;2023-07-29T06:39:28;5.32;;;2.20;;
72601;SDS011;60644;55.858;37.390;2023-07-29T06:41:53;6.47;;;2.50;;
72601;SDS011;60644;55.858;37.390;2023-07-29T06:44:20;6.13;;;2.53;;
72601;SDS011;60644;55.858;37.390;2023-07-29T06:46:46;5.95;;;2.30;;
72601;SDS011;60644;55.858;37.390;2023-07-29T06:49:12;5.77;;;2.43;;
72601;SDS011;60644;55.858;37.390;2023-07-29T06:51:37;7.90;;;2.55;;
72601;SDS011;60644;55.858;37.390;2023-07-29T06:54:03;6.87;;;2.53;;
72601;SDS011;60644;55.858;37.390;2023-07-29T06:56:29;6.43;;;2.40;;
72601;SDS011;60644;55.858;37.390;2023-07-29T06:58:54;7.55;;;2.70;;
72601;SDS011;60644;55.858;37.390;2023-07-29T07:01:20;5.45;;;2.50;;
72601;SDS011;60644;55.858;37.390;2023-07-29T07:03:47;6.07;;;2.47;;
72601;SDS011;60644;55.858;37.390;2023-07-29T07:06:13;5.25;;;2.20;;
72601;SDS011;60644;55.858;37.390;2023-07-29T07:08:39;5.30;;;2.10;;
72601;SDS011;60644;55.858;37.390;2023-07-29T07:11:04;4.97;;;2.22;;
72601;SDS011;60644;55.858;37.390;2023-07-29T07:13:30;5.47;;;2.10;;
72601;SDS011;60644;55.858;37.390;2023-07-29T07:15:56;5.57;;;2.40;;
72601;SDS011;60644;55.858;37.390;2023-07-29T07:18:22;5.97;;;2.25;;
72601;SDS011;60644;55.858;37.390;2023-07-29T07:20:48;5.90;;;2.17;;
72601;SDS011;60644;55.858;37.390;2023-07-29T07:23:15;6.82;;;2.78;;
72601;SDS011;60644;55.858;37.390;2023-07-29T07:25:41;5.78;;;2.25;;
72601;SDS011;60644;55.858;37.390;2023-07-29T07:28:08;5.50;;;2.17;;
72601;SDS011;60644;55.858;37.390;2023-07-29T07:30:34;6.18;;;2.13;;
72601;SDS011;60644;55.858;37.390;2023-07-29T07:32:59;5.33;;;2.37;;
72601;SDS011;60644;55.858;37.390;2023-07-29T07:35:25;5.95;;;2.67;;
72601;SDS011;60644;55.858;37.390;2023-07-29T07:37:51;4.60;;;2.00;;
72601;SDS011;60644;55.858;37.390;2023-07-29T07:40:16;5.78;;;2.05;;
72601;SDS011;60644;55.858;37.390;2023-07-29T07:42:42;6.33;;;2.17;;
72601;SDS011;60644;55.858;37.390;2023-07-29T07:45:08;5.25;;;2.20;;
72601;SDS011;60644;55.858;37.390;2023-07-29T07:47:34;6.23;;;2.40;;
72601;SDS011;60644;55.858;37.390;2023-07-29T07:49:59;7.13;;;2.70;;
72601;SDS011;60644;55.858;37.390;2023-07-29T07:52:28;5.30;;;2.30;;
72601;SDS011;60644;55.858;37.390;2023-07-29T07:54:54;6.65;;;2.35;;
72601;SDS011;60644;55.858;37.390;2023-07-29T07:57:20;6.00;;;2.35;;
72601;SDS011;60644;55.858;37.390;2023-07-29T07:59:46;5.97;;;2.07;;
72601;SDS011;60644;55.858;37.390;2023-07-29T08:02:12;5.72;;;2.50;;
72601;SDS011;60644;55.858;37.390;2023-07-29T08:04:37;6.30;;;2.70;;
72601;SDS011;60644;55.858;37.390;2023-07-29T08:07:03;6.07;;;2.78;;
72601;SDS011;60644;55.858;37.390;2023-07-29T08:09:29;5.13;;;2.27;;
72601;SDS011;60644;55.858;37.390;2023-07-29T08:11:55;5.38;;;2.30;;
72601;SDS011;60644;55.858;37.390;2023-07-29T08:14:20;7.37;;;2.37;;
72601;SDS011;60644;55.858;37.390;2023-07-29T08:16:46;5.95;;;1.92;;
72601;SDS011;60644;55.858;37.390;2023-07-29T08:19:12;6.20;;;2.37;;
72601;SDS011;60644;55.858;37.390;2023-07-29T08:21:38;5.70;;;2.20;;
72601;SDS011;60644;55.858;37.390;2023-07-29T08:24:04;4.90;;;2.17;;
72601;SDS011;60644;55.858;37.390;2023-07-29T08:26:29;5.13;;;2.20;;
72601;SDS011;60644;55.858;37.390;2023-07-29T08:28:55;8.32;;;2.30;;
72601;SDS011;60644;55.858;37.390;2023-07-29T08:31:21;6.17;;;2.07;;
72601;SDS011;60644;55.858;37.390;2023-07-29T08:33:46;6.25;;;1.85;;
72601;SDS011;60644;55.858;37.390;2023-07-29T08:36:12;5.47;;;2.20;;
72601;SDS011;60644;55.858;37.390;2023-07-29T08:38:38;5.57;;;2.40;;
72601;SDS011;60644;55.858;37.390;2023-07-29T08:43:29;5.83;;;2.60;;
72601;SDS011;60644;55.858;37.390;2023-07-29T08:45:58;5.40;;;2.30;;
72601;SDS011;60644;55.858;37.390;2023-07-29T08:48:29;5.95;;;2.35;;
72601;SDS011;60644;55.858;37.390;2023-07-29T08:50:55;8.30;;;2.60;;
72601;SDS011;60644;55.858;37.390;2023-07-29T08:53:21;6.70;;;2.45;;
72601;SDS011;60644;55.858;37.390;2023-07-29T08:55:47;7.25;;;2.50;;
72601;SDS011;60644;55.858;37.390;2023-07-29T08:58:12;5.77;;;2.70;;
72601;SDS011;60644;55.858;37.390;2023-07-29T09:00:39;6.25;;;2.55;;
72601;SDS011;60644;55.858;37.390;2023-07-29T09:03:05;5.75;;;2.85;;
72601;SDS011;60644;55.858;37.390;2023-07-29T09:05:35;6.30;;;2.20;;
72601;SDS011;60644;55.858;37.390;2023-07-29T09:08:02;5.20;;;2.33;;
72601;SDS011;60644;55.858;37.390;2023-07-29T09:10:27;6.43;;;2.90;;
72601;SDS011;60644;55.858;37.390;2023-07-29T09:12:53;7.30;;;2.67;;
72601;SDS011;60644;55.858;37.390;2023-07-29T09:15:28;6.37;;;2.47;;
72601;SDS011;60644;55.858;37.390;2023-07-29T09:17:58;5.25;;;2.17;;
72601;SDS011;60644;55.858;37.390;2023-07-29T09:20:27;7.28;;;2.70;;
72601;SDS011;60644;55.858;37.390;2023-07-29T09:22:53;5.50;;;2.58;;
72601;SDS011;60644;55.858;37.390;2023-07-29T09:25:24;5.22;;;2.00;;
72601;SDS011;60644;55.858;37.390;2023-07-29T09:27:50;5.40;;;2.23;;
72601;SDS011;60644;55.858;37.390;2023-07-29T09:30:16;6.15;;;2.80;;
72601;SDS011;60644;55.858;37.390;2023-07-29T09:32:42;7.07;;;2.50;;
72601;SDS011;60644;55.858;37.390;2023-07-29T09:35:11;5.73;;;2.10;;
72601;SDS011;60644;55.858;37.390;2023-07-29T09:37:37;6.63;;;2.58;;
72601;SDS011;60644;55.858;37.390;2023-07-29T09:40:03;5.40;;;2.13;;
72601;SDS011;60644;55.858;37.390;2023-07-29T09:42:29;5.50;;;1.85;;
72601;SDS011;60644;55.858;37.390;2023-07-29T09:44:55;5.10;;;2.00;;
72601;SDS011;60644;55.858;37.390;2023-07-29T09:47:21;5.30;;;2.00;;
72601;SDS011;60644;55.858;37.390;2023-07-29T09:49:48;6.80;;;1.97;;
72601;SDS011;60644;55.858;37.390;2023-07-29T09:52:14;4.90;;;1.95;;
72601;SDS011;60644;55.858;37.390;2023-07-29T09:54:41;5.15;;;2.08;;
72601;SDS011;60644;55.858;37.390;2023-07-29T09:57:07;5.30;;;2.22;;
72601;SDS011;60644;55.858;37.390;2023-07-29T09:59:33;6.33;;;2.60;;
72601;SDS011;60644;55.858;37.390;2023-07-29T10:01:59;6.05;;;2.67;;
72601;SDS011;60644;55.858;37.390;2023-07-29T10:04:25;7.32;;;2.55;;
72601;SDS011;60644;55.858;37.390;2023-07-29T10:06:51;5.75;;;2.63;;
72601;SDS011;60644;55.858;37.390;2023-07-29T10:09:17;7.83;;;2.63;;
72601;SDS011;60644;55.858;37.390;2023-07-29T10:11:44;5.55;;;2.58;;
72601;SDS011;60644;55.858;37.390;2023-07-29T10:14:10;6.28;;;2.65;;
72601;SDS011;60644;55.858;37.390;2023-07-29T10:16:36;5.50;;;2.73;;
72601;SDS011;60644;55.858;37.390;2023-07-29T10:19:03;6.60;;;2.70;;
72601;SDS011;60644;55.858;37.390;2023-07-29T10:21:30;7.47;;;2.70;;
72601;SDS011;60644;55.858;37.390;2023-07-29T10:23:56;7.05;;;2.95;;
72601;SDS011;60644;55.858;37.390;2023-07-29T10:26:25;6.63;;;2.55;;
72601;SDS011;60644;55.858;37.390;2023-07-29T10:28:53;7.33;;;2.50;;
72601;SDS011;60644;55.858;37.390;2023-07-29T10:31:20;5.78;;;2.55;;
72601;SDS011;60644;55.858;37.390;2023-07-29T10:33:48;6.93;;;2.45;;
72601;SDS011;60644;55.858;37.390;2023-07-29T10:36:14;7.85;;;2.70;;
72601;SDS011;60644;55.858;37.390;2023-07-29T10:38:40;7.13;;;2.60;;
72601;SDS011;60644;55.858;37.390;2023-07-29T10:41:06;6.43;;;2.90;;
72601;SDS011;60644;55.858;37.390;2023-07-29T10:45:58;6.37;;;2.97;;
72601;SDS011;60644;55.858;37.390;2023-07-29T10:51:43;7.13;;;2.60;;
72601;SDS011;60644;55.858;37.390;2023-07-29T10:53:43;9.40;;;2.80;;
72601;SDS011;60644;55.858;37.390;2023-07-29T10:56:09;6.22;;;2.70;;
72601;SDS011;60644;55.858;37.390;2023-07-29T10:58:35;6.33;;;2.70;;
72601;SDS011;60644;55.858;37.390;2023-07-29T11:01:00;5.80;;;2.67;;
72601;SDS011;60644;55.858;37.390;2023-07-29T11:03:26;8.40;;;3.47;;
72601;SDS011;60644;55.858;37.390;2023-07-29T11:05:54;5.53;;;2.67;;
72601;SDS011;60644;55.858;37.390;2023-07-29T11:08:21;6.25;;;2.33;;
72601;SDS011;60644;55.858;37.390;2023-07-29T11:11:11;5.07;;;2.15;;
72601;SDS011;60644;55.858;37.390;2023-07-29T11:13:35;4.15;;;1.63;;
72601;SDS011;60644;55.858;37.390;2023-07-29T11:16:01;5.23;;;2.13;;
72601;SDS011;60644;55.858;37.390;2023-07-29T11:18:31;5.30;;;2.22;;
72601;SDS011;60644;55.858;37.390;2023-07-29T11:20:57;5.35;;;2.35;;
72601;SDS011;60644;55.858;37.390;2023-07-29T11:23:30;5.60;;;2.30;;
72601;SDS011;60644;55.858;37.390;2023-07-29T11:25:56;5.20;;;1.95;;
72601;SDS011;60644;55.858;37.390;2023-07-29T11:28:22;5.03;;;1.90;;
72601;SDS011;60644;55.858;37.390;2023-07-29T11:30:49;6.25;;;2.03;;
72601;SDS011;60644;55.858;37.390;2023-07-29T11:33:16;6.90;;;2.63;;
72601;SDS011;60644;55.858;37.390;2023-07-29T11:35:42;5.70;;;2.20;;
72601;SDS011;60644;55.858;37.390;2023-07-29T11:38:14;7.80;;;2.50;;
72601;SDS011;60644;55.858;37.390;2023-07-29T11:40:40;7.00;;;2.08;;
72601;SDS011;60644;55.858;37.390;2023-07-29T11:43:05;4.70;;;1.80;;
72601;SDS011;60644;55.858;37.390;2023-07-29T11:45:31;5.03;;;1.57;;
72601;SDS011;60644;55.858;37.390;2023-07-29T11:47:58;6.30;;;1.50;;
72601;SDS011;60644;55.858;37.390;2023-07-29T11:50:24;6.13;;;1.50;;
72601;SDS011;60644;55.858;37.390;2023-07-29T11:52:50;4.00;;;1.20;;
72601;SDS011;60644;55.858;37.390;2023-07-29T11:55:15;3.45;;;1.10;;
72601;SDS011;60644;55.858;37.390;2023-07-29T11:57:42;5.33;;;1.30;;
72601;SDS011;60644;55.858;37.390;2023-07-29T12:00:09;4.60;;;1.13;;
72601;SDS011;60644;55.858;37.390;2023-07-29T12:02:37;4.55;;;1.77;;
72601;SDS011;60644;55.858;37.390;2023-07-29T12:05:04;6.82;;;1.70;;
72601;SDS011;60644;55.858;37.390;2023-07-29T12:07:30;4.93;;;1.65;;
72601;SDS011;60644;55.858;37.390;2023-07-29T12:10:02;4.03;;;1.10;;
72601;SDS011;60644;55.858;37.390;2023-07-29T12:12:30;5.45;;;1.67;;
72601;SDS011;60644;55.858;37.390;2023-07-29T12:14:56;8.50;;;2.00;;
72601;SDS011;60644;55.858;37.390;2023-07-29T12:17:22;4.93;;;1.60;;
72601;SDS011;60644;55.858;37.390;2023-07-29T12:19:48;5.63;;;1.60;;
72601;SDS011;60644;55.858;37.390;2023-07-29T12:22:17;5.35;;;1.67;;
72601;SDS011;60644;55.858;37.390;2023-07-29T12:24:43;5.63;;;1.50;;
72601;SDS011;60644;55.858;37.390;2023-07-29T12:27:12;4.22;;;1.60;;
72601;SDS011;60644;55.858;37.390;2023-07-29T12:29:42;5.10;;;1.20;;
72601;SDS011;60644;55.858;37.390;2023-07-29T12:32:09;4.30;;;1.45;;
72601;SDS011;60644;55.858;37.390;2023-07-29T12:34:36;5.37;;;1.73;;
72601;SDS011;60644;55.858;37.390;2023-07-29T12:37:02;5.35;;;1.60;;
72601;SDS011;60644;55.858;37.390;2023-07-29T12:39:29;4.35;;;1.38;;
72601;SDS011;60644;55.858;37.390;2023-07-29T12:41:56;4.18;;;1.40;;
72601;SDS011;60644;55.858;37.390;2023-07-29T12:44:27;7.10;;;1.80;;
72601;SDS011;60644;55.858;37.390;2023-07-29T12:46:52;5.90;;;1.50;;
72601;SDS011;60644;55.858;37.390;2023-07-29T12:49:18;4.57;;;1.45;;
72601;SDS011;60644;55.858;37.390;2023-07-29T12:51:45;5.10;;;1.70;;
72601;SDS011;60644;55.858;37.390;2023-07-29T12:54:10;4.60;;;1.40;;
72601;SDS011;60644;55.858;37.390;2023-07-29T12:56:36;6.13;;;2.07;;
72601;SDS011;60644;55.858;37.390;2023-07-29T12:59:02;5.63;;;1.50;;
72601;SDS011;60644;55.858;37.390;2023-07-29T13:01:28;6.72;;;2.15;;
72601;SDS011;60644;55.858;37.390;2023-07-29T13:03:54;6.60;;;2.17;;
72601;SDS011;60644;55.858;37.390;2023-07-29T13:06:20;5.45;;;1.63;;
72601;SDS011;60644;55.858;37.390;2023-07-29T13:08:46;5.30;;;1.80;;
72601;SDS011;60644;55.858;37.390;2023-07-29T13:11:12;5.65;;;1.50;;
72601;SDS011;60644;55.858;37.390;2023-07-29T13:13:38;6.47;;;1.90;;
72601;SDS011;60644;55.858;37.390;2023-07-29T13:16:04;6.43;;;1.75;;
72601;SDS011;60644;55.858;37.390;2023-07-29T13:18:29;5.67;;;1.77;;
72601;SDS011;60644;55.858;37.390;2023-07-29T13:20:55;6.57;;;1.67;;
72601;SDS011;60644;55.858;37.390;2023-07-29T13:23:21;6.35;;;2.42;;
72601;SDS011;60644;55.858;37.390;2023-07-29T13:25:47;6.15;;;2.08;;
72601;SDS011;60644;55.858;37.390;2023-07-29T13:28:12;7.23;;;2.40;;
72601;SDS011;60644;55.858;37.390;2023-07-29T13:30:39;5.82;;;2.67;;
72601;SDS011;60644;55.858;37.390;2023-07-29T13:33:05;6.37;;;2.27;;
72601;SDS011;60644;55.858;37.390;2023-07-29T13:35:33;6.50;;;2.17;;
72601;SDS011;60644;55.858;37.390;2023-07-29T13:37:59;5.72;;;1.98;;
72601;SDS011;60644;55.858;37.390;2023-07-29T13:40:25;6.78;;;2.13;;
72601;SDS011;60644;55.858;37.390;2023-07-29T13:42:51;6.03;;;2.13;;
72601;SDS011;60644;55.858;37.390;2023-07-29T13:45:18;6.57;;;1.85;;
72601;SDS011;60644;55.858;37.390;2023-07-29T13:47:43;7.47;;;2.15;;
72601;SDS011;60644;55.858;37.390;2023-07-29T13:50:09;7.53;;;2.00;;
72601;SDS011;60644;55.858;37.390;2023-07-29T13:52:36;7.05;;;2.30;;
72601;SDS011;60644;55.858;37.390;2023-07-29T13:55:02;5.22;;;2.00;;
72601;SDS011;60644;55.858;37.390;2023-07-29T13:57:29;6.55;;;2.22;;
72601;SDS011;60644;55.858;37.390;2023-07-29T13:59:54;5.70;;;2.10;;
72601;SDS011;60644;55.858;37.390;2023-07-29T14:02:20;6.32;;;2.40;;
72601;SDS011;60644;55.858;37.390;2023-07-29T14:04:46;5.80;;;1.63;;
72601;SDS011;60644;55.858;37.390;2023-07-29T14:07:12;5.85;;;1.92;;
72601;SDS011;60644;55.858;37.390;2023-07-29T14:09:37;5.83;;;1.50;;
72601;SDS011;60644;55.858;37.390;2023-07-29T14:12:04;5.47;;;1.50;;
72601;SDS011;60644;55.858;37.390;2023-07-29T14:14:30;5.38;;;1.88;;
72601;SDS011;60644;55.858;37.390;2023-07-29T14:16:55;5.00;;;1.70;;
72601;SDS011;60644;55.858;37.390;2023-07-29T14:19:21;5.40;;;1.77;;
72601;SDS011;60644;55.858;37.390;2023-07-29T14:21:47;9.23;;;2.70;;
72601;SDS011;60644;55.858;37.390;2023-07-29T14:24:13;4.40;;;1.40;;
72601;SDS011;60644;55.858;37.390;2023-07-29T14:26:40;5.70;;;2.15;;
72601;SDS011;60644;55.858;37.390;2023-07-29T14:29:06;6.28;;;2.08;;
72601;SDS011;60644;55.858;37.390;2023-07-29T14:31:32;7.03;;;2.40;;
72601;SDS011;60644;55.858;37.390;2023-07-29T14:33:58;5.77;;;2.00;;
72601;SDS011;60644;55.858;37.390;2023-07-29T14:36:25;6.88;;;2.40;;
72601;SDS011;60644;55.858;37.390;2023-07-29T14:38:51;5.20;;;2.15;;
72601;SDS011;60644;55.858;37.390;2023-07-29T14:41:17;5.88;;;2.10;;
72601;SDS011;60644;55.858;37.390;2023-07-29T14:43:43;7.53;;;2.47;;
72601;SDS011;60644;55.858;37.390;2023-07-29T14:46:08;7.70;;;2.33;;